createdAt,value
2017-12-21T00:00:30.639Z,0
2017-12-21T00:01:40.616Z,0
2017-12-21T00:02:50.591Z,0
2017-12-21T00:04:00.305Z,0
2017-12-21T00:05:10.016Z,0
2017-12-21T00:06:20.000Z,0
2017-12-21T00:07:29.978Z,0
2017-12-21T00:08:39.973Z,0
2017-12-21T00:09:49.423Z,0
2017-12-21T00:10:59.408Z,0
2017-12-21T00:12:09.435Z,0
2017-12-21T00:13:19.412Z,0
2017-12-21T00:14:29.125Z,0
2017-12-21T00:15:39.144Z,0
2017-12-21T00:16:49.119Z,0
2017-12-21T00:17:59.092Z,0
2017-12-21T00:19:09.071Z,0
2017-12-21T00:20:18.793Z,0
2017-12-21T00:21:28.773Z,0
2017-12-21T00:22:38.749Z,0
2017-12-21T00:23:48.727Z,0
2017-12-21T00:24:58.702Z,0
2017-12-21T00:26:08.415Z,0
2017-12-21T00:27:18.393Z,0
2017-12-21T00:28:28.379Z,0
2017-12-21T00:29:38.354Z,0
2017-12-21T00:30:48.329Z,0
2017-12-21T00:31:58.299Z,0
2017-12-21T00:33:08.013Z,0
2017-12-21T00:34:17.728Z,0
2017-12-21T00:35:27.709Z,0
2017-12-21T00:36:37.688Z,0
2017-12-21T00:37:47.671Z,0
2017-12-21T00:38:57.650Z,0
2017-12-21T00:40:07.362Z,0
2017-12-21T00:41:17.083Z,0
2017-12-21T00:42:27.077Z,0
2017-12-21T00:43:37.056Z,0
2017-12-21T00:44:46.769Z,0
2017-12-21T00:45:56.751Z,0
2017-12-21T00:47:06.469Z,0
2017-12-21T00:48:16.179Z,0
2017-12-21T00:49:26.162Z,0
2017-12-21T00:50:36.143Z,0
2017-12-21T00:51:46.135Z,0
2017-12-21T00:52:56.109Z,0
2017-12-21T00:54:06.086Z,0
2017-12-21T00:55:16.080Z,0
2017-12-21T00:56:26.062Z,0
2017-12-21T00:57:36.039Z,0
2017-12-21T00:58:46.013Z,0
2017-12-21T00:59:55.992Z,0
2017-12-21T01:01:05.969Z,0
2017-12-21T01:02:15.684Z,0
2017-12-21T01:03:25.397Z,0
2017-12-21T01:04:35.372Z,0
2017-12-21T01:05:45.348Z,0
2017-12-21T01:06:55.060Z,0
2017-12-21T01:08:05.041Z,0
2017-12-21T01:09:14.758Z,0
2017-12-21T01:10:24.734Z,0
2017-12-21T01:11:34.710Z,0
2017-12-21T01:12:44.689Z,0
2017-12-21T01:13:54.414Z,0
2017-12-21T01:15:04.390Z,0
2017-12-21T01:16:14.104Z,0
2017-12-21T01:17:24.087Z,0
2017-12-21T01:18:34.075Z,0
2017-12-21T01:19:44.050Z,0
2017-12-21T01:20:54.025Z,0
2017-12-21T01:22:03.472Z,0
2017-12-21T01:23:13.188Z,0
2017-12-21T01:24:22.906Z,0
2017-12-21T01:25:32.882Z,0
2017-12-21T01:26:42.330Z,0
2017-12-21T01:27:52.305Z,0
2017-12-21T01:29:02.286Z,0
2017-12-21T01:30:12.005Z,0
2017-12-21T01:31:21.450Z,0
2017-12-21T01:32:31.433Z,0
2017-12-21T01:33:41.150Z,0
2017-12-21T01:34:51.127Z,0
2017-12-21T01:36:01.110Z,0
2017-12-21T01:37:10.826Z,0
2017-12-21T01:38:20.538Z,0
2017-12-21T01:39:30.519Z,0
2017-12-21T01:40:40.496Z,0
2017-12-21T01:41:50.474Z,0
2017-12-21T01:43:00.186Z,0
2017-12-21T01:44:09.906Z,0
2017-12-21T01:45:19.931Z,0
2017-12-21T01:46:29.905Z,0
2017-12-21T01:47:39.882Z,0
2017-12-21T01:48:49.871Z,0
2017-12-21T01:49:59.857Z,0
2017-12-21T01:51:09.839Z,0
2017-12-21T01:52:19.814Z,0
2017-12-21T01:53:29.798Z,0
2017-12-21T01:54:39.780Z,0
2017-12-21T01:55:49.761Z,0
2017-12-21T01:56:59.746Z,0
2017-12-21T01:58:09.721Z,0
2017-12-21T01:59:19.707Z,0
2017-12-21T02:00:29.684Z,0
2017-12-21T02:01:39.663Z,0
2017-12-21T02:02:49.643Z,0
2017-12-21T02:03:59.621Z,0
2017-12-21T02:05:09.600Z,0
2017-12-21T02:06:19.633Z,0
2017-12-21T02:07:29.611Z,0
2017-12-21T02:08:39.596Z,0
2017-12-21T02:09:49.043Z,0
2017-12-21T02:10:58.755Z,0
2017-12-21T02:12:08.734Z,0
2017-12-21T02:13:18.709Z,0
2017-12-21T02:14:28.683Z,0
2017-12-21T02:15:38.657Z,0
2017-12-21T02:16:48.633Z,0
2017-12-21T02:17:58.879Z,0
2017-12-21T02:19:08.856Z,0
2017-12-21T02:20:18.838Z,0
2017-12-21T02:21:28.814Z,0
2017-12-21T02:22:38.837Z,0
2017-12-21T02:23:48.546Z,0
2017-12-21T02:24:58.523Z,0
2017-12-21T02:26:08.244Z,0
2017-12-21T02:27:18.221Z,0
2017-12-21T02:28:28.200Z,0
2017-12-21T02:29:37.914Z,0
2017-12-21T02:30:47.894Z,0
2017-12-21T02:31:57.871Z,0
2017-12-21T02:33:07.584Z,0
2017-12-21T02:34:17.562Z,0
2017-12-21T02:35:27.546Z,0
2017-12-21T02:36:37.527Z,0
2017-12-21T02:37:47.236Z,0
2017-12-21T02:38:57.217Z,0
2017-12-21T02:40:07.204Z,0
2017-12-21T02:41:16.923Z,0
2017-12-21T02:42:26.904Z,0
2017-12-21T02:43:36.886Z,0
2017-12-21T02:44:46.599Z,0
2017-12-21T02:45:56.583Z,0
2017-12-21T02:47:06.294Z,0
2017-12-21T02:48:16.006Z,0
2017-12-21T02:49:25.995Z,0
2017-12-21T02:50:35.989Z,0
2017-12-21T02:51:45.969Z,0
2017-12-21T02:52:55.678Z,0
2017-12-21T02:54:05.661Z,0
2017-12-21T02:55:15.643Z,0
2017-12-21T02:56:25.367Z,0
2017-12-21T02:57:35.347Z,0
2017-12-21T02:58:45.328Z,0
2017-12-21T02:59:55.302Z,0
2017-12-21T03:01:05.275Z,0
2017-12-21T03:02:15.057Z,0
2017-12-21T03:03:25.029Z,0
2017-12-21T03:04:34.743Z,0
2017-12-21T03:05:44.717Z,0
2017-12-21T03:06:54.426Z,0
2017-12-21T03:08:04.400Z,0
2017-12-21T03:09:14.111Z,0
2017-12-21T03:10:23.822Z,0
2017-12-21T03:11:33.532Z,0
2017-12-21T03:12:43.505Z,0
2017-12-21T03:13:52.947Z,0
2017-12-21T03:15:02.923Z,0
2017-12-21T03:16:14.690Z,0
2017-12-21T03:17:24.669Z,0
2017-12-21T03:18:34.642Z,0
2017-12-21T03:19:44.620Z,0
2017-12-21T03:20:54.601Z,0
2017-12-21T03:22:04.583Z,0
2017-12-21T03:23:14.564Z,0
2017-12-21T03:24:24.541Z,0
2017-12-21T03:25:34.514Z,0
2017-12-21T03:26:44.489Z,0
2017-12-21T03:27:54.463Z,0
2017-12-21T03:29:04.438Z,0
2017-12-21T03:30:14.441Z,0
2017-12-21T03:31:24.440Z,0
2017-12-21T03:32:34.426Z,0
2017-12-21T03:33:44.409Z,0
2017-12-21T03:34:54.381Z,0
2017-12-21T03:36:04.093Z,0
2017-12-21T03:37:13.540Z,0
2017-12-21T03:38:23.519Z,0
2017-12-21T03:39:33.492Z,0
2017-12-21T03:40:43.476Z,0
2017-12-21T03:41:53.200Z,0
2017-12-21T03:43:02.913Z,0
2017-12-21T03:44:12.897Z,0
2017-12-21T03:45:22.873Z,0
2017-12-21T03:46:32.327Z,0
2017-12-21T03:47:42.307Z,0
2017-12-21T03:48:52.286Z,0
2017-12-21T03:50:02.269Z,0
2017-12-21T03:51:12.600Z,0
2017-12-21T03:52:22.580Z,0
2017-12-21T03:53:32.554Z,0
2017-12-21T03:54:42.267Z,0
2017-12-21T03:55:52.248Z,0
2017-12-21T03:57:01.964Z,0
2017-12-21T03:58:11.947Z,0
2017-12-21T03:59:21.934Z,0
2017-12-21T04:03:29.696Z,0
2017-12-21T04:04:39.674Z,0
2017-12-21T04:05:49.655Z,0
2017-12-21T04:06:59.369Z,0
2017-12-21T04:08:09.355Z,0
2017-12-21T04:09:18.804Z,0
2017-12-21T04:10:28.782Z,0
2017-12-21T04:11:38.758Z,0
2017-12-21T04:12:48.741Z,0
2017-12-21T04:13:58.459Z,0
2017-12-21T04:15:08.170Z,0
2017-12-21T04:16:17.881Z,0
2017-12-21T04:17:27.857Z,0
2017-12-21T04:18:37.629Z,0
2017-12-21T04:19:47.348Z,0
2017-12-21T04:20:57.325Z,0
2017-12-21T04:22:07.311Z,0
2017-12-21T04:23:17.286Z,0
2017-12-21T04:24:27.267Z,0
2017-12-21T04:25:37.247Z,0
2017-12-21T04:26:47.229Z,0
2017-12-21T04:27:57.209Z,0
2017-12-21T04:29:07.187Z,0
2017-12-21T04:30:16.901Z,0
2017-12-21T04:31:26.879Z,0
2017-12-21T04:32:36.856Z,0
2017-12-21T04:33:46.834Z,0
2017-12-21T04:34:56.824Z,0
2017-12-21T04:36:06.273Z,0
2017-12-21T04:37:16.254Z,0
2017-12-21T04:38:26.232Z,0
2017-12-21T04:39:36.215Z,0
2017-12-21T04:40:46.192Z,0
2017-12-21T04:41:55.905Z,0
2017-12-21T04:43:05.882Z,0
2017-12-21T04:44:15.594Z,0
2017-12-21T04:45:25.578Z,0
2017-12-21T04:46:35.558Z,0
2017-12-21T04:47:45.532Z,0
2017-12-21T04:48:55.514Z,0
2017-12-21T04:50:05.502Z,0
2017-12-21T04:51:14.951Z,0
2017-12-21T04:52:24.935Z,0
2017-12-21T04:53:34.922Z,0
2017-12-21T04:54:44.919Z,0
2017-12-21T04:55:54.907Z,0
2017-12-21T04:57:04.885Z,0
2017-12-21T04:58:14.597Z,0
2017-12-21T04:59:24.306Z,0
2017-12-21T05:00:34.280Z,0
2017-12-21T05:01:44.251Z,0
2017-12-21T05:02:54.229Z,0
2017-12-21T05:04:04.213Z,0
2017-12-21T05:05:14.187Z,0
2017-12-21T05:06:23.898Z,0
2017-12-21T05:07:33.340Z,0
2017-12-21T05:08:43.316Z,0
2017-12-21T05:09:53.292Z,0
2017-12-21T05:11:03.270Z,0
2017-12-21T05:12:13.248Z,0
2017-12-21T05:13:22.961Z,0
2017-12-21T05:14:32.952Z,0
2017-12-21T05:15:42.981Z,0
2017-12-21T05:16:52.699Z,0
2017-12-21T05:18:02.411Z,0
2017-12-21T05:19:12.388Z,0
2017-12-21T05:20:22.366Z,0
2017-12-21T05:21:32.342Z,0
2017-12-21T05:22:42.316Z,0
2017-12-21T05:23:52.290Z,0
2017-12-21T05:25:02.269Z,0
2017-12-21T05:26:11.975Z,0
2017-12-21T05:27:21.684Z,0
2017-12-21T05:28:31.657Z,0
2017-12-21T05:29:41.644Z,0
2017-12-21T05:30:51.351Z,0
2017-12-21T05:32:01.326Z,0
2017-12-21T05:33:11.305Z,0
2017-12-21T05:34:21.279Z,0
2017-12-21T05:35:31.252Z,0
2017-12-21T05:36:41.231Z,0
2017-12-21T05:37:51.212Z,0
2017-12-21T05:39:00.920Z,0
2017-12-21T05:40:10.898Z,0
2017-12-21T05:41:20.870Z,0
2017-12-21T05:42:30.855Z,0
2017-12-21T05:43:40.839Z,0
2017-12-21T05:44:50.813Z,0
2017-12-21T05:46:00.786Z,0
2017-12-21T05:47:10.503Z,0
2017-12-21T05:48:20.480Z,0
2017-12-21T05:49:30.455Z,0
2017-12-21T05:50:40.433Z,0
2017-12-21T05:51:50.424Z,0
2017-12-21T05:53:00.476Z,0
2017-12-21T05:54:10.183Z,0
2017-12-21T05:55:20.166Z,0
2017-12-21T05:56:30.141Z,0
2017-12-21T05:57:40.122Z,0
2017-12-21T05:58:50.099Z,0
2017-12-21T06:00:00.077Z,0
2017-12-21T06:01:10.060Z,0
2017-12-21T06:02:20.040Z,0
2017-12-21T06:03:30.014Z,0
2017-12-21T06:04:40.052Z,0
2017-12-21T06:05:50.029Z,0
2017-12-21T06:07:00.002Z,0
2017-12-21T06:08:09.713Z,0
2017-12-21T06:09:19.686Z,0
2017-12-21T06:10:29.681Z,0
2017-12-21T06:11:39.661Z,0
2017-12-21T06:12:49.369Z,0
2017-12-21T06:13:59.350Z,0
2017-12-21T06:15:09.328Z,0
2017-12-21T06:16:19.302Z,0
2017-12-21T06:17:29.278Z,0
2017-12-21T06:18:39.254Z,0
2017-12-21T06:19:49.236Z,0
2017-12-21T06:20:59.217Z,0
2017-12-21T06:22:09.189Z,0
2017-12-21T06:23:19.169Z,0
2017-12-21T06:24:29.143Z,0
2017-12-21T06:25:39.115Z,0
2017-12-21T06:26:49.147Z,0
2017-12-21T06:27:59.119Z,0
2017-12-21T06:29:09.103Z,0
2017-12-21T06:30:19.083Z,0
2017-12-21T06:31:29.068Z,0
2017-12-21T06:32:39.042Z,0
2017-12-21T06:33:49.015Z,0
2017-12-21T06:35:00.995Z,0
2017-12-21T06:36:10.973Z,0
2017-12-21T06:37:20.683Z,0
2017-12-21T06:38:30.658Z,0
2017-12-21T06:39:40.636Z,0
2017-12-21T06:40:50.618Z,0
2017-12-21T06:42:00.597Z,0
2017-12-21T06:43:10.573Z,0
2017-12-21T06:44:20.548Z,0
2017-12-21T06:45:30.272Z,0
2017-12-21T06:46:40.533Z,0
2017-12-21T06:47:50.510Z,0
2017-12-21T06:49:00.491Z,0
2017-12-21T06:50:10.469Z,0
2017-12-21T06:51:20.447Z,0
2017-12-21T06:52:30.428Z,0
2017-12-21T06:53:40.232Z,0
2017-12-21T06:54:50.213Z,0
2017-12-21T06:56:00.186Z,0
2017-12-21T06:57:10.167Z,0
2017-12-21T06:58:20.156Z,0
2017-12-21T06:59:29.874Z,0
2017-12-21T07:00:39.846Z,0
2017-12-21T07:01:49.823Z,0
2017-12-21T07:02:59.809Z,0
2017-12-21T07:04:09.844Z,0
2017-12-21T07:05:19.304Z,0
2017-12-21T07:06:29.023Z,0
2017-12-21T07:07:38.734Z,0
2017-12-21T07:08:48.452Z,0
2017-12-21T07:09:58.437Z,0
2017-12-21T07:11:08.418Z,0
2017-12-21T07:12:18.401Z,0
2017-12-21T07:13:28.378Z,0
2017-12-21T07:14:38.359Z,0
2017-12-21T07:15:48.340Z,0
2017-12-21T07:16:58.353Z,0
2017-12-21T07:18:08.333Z,0
2017-12-21T07:19:18.050Z,0
2017-12-21T07:20:28.031Z,0
2017-12-21T07:21:38.007Z,0
2017-12-21T07:22:47.730Z,0
2017-12-21T07:23:57.442Z,0
2017-12-21T07:25:07.157Z,0
2017-12-21T07:26:17.178Z,0
2017-12-21T07:27:27.162Z,0
2017-12-21T07:28:36.876Z,0
2017-12-21T07:29:46.329Z,0
2017-12-21T07:30:56.308Z,0
2017-12-21T07:32:06.284Z,0
2017-12-21T07:33:16.269Z,0
2017-12-21T07:34:26.271Z,0
2017-12-21T07:35:36.251Z,0
2017-12-21T07:36:45.706Z,0
2017-12-21T07:37:55.689Z,0
2017-12-21T07:39:05.416Z,0
2017-12-21T07:40:15.401Z,0
2017-12-21T07:41:25.384Z,0
2017-12-21T07:42:35.370Z,0
2017-12-21T07:43:45.356Z,0
2017-12-21T07:44:55.393Z,0
2017-12-21T07:46:05.374Z,0
2017-12-21T07:47:14.557Z,0
2017-12-21T07:48:24.542Z,0
2017-12-21T07:49:34.519Z,0
2017-12-21T07:50:44.480Z,0
2017-12-21T07:51:54.464Z,0
2017-12-21T07:53:04.443Z,0
2017-12-21T07:54:14.423Z,0
2017-12-21T07:55:24.405Z,0
2017-12-21T07:56:34.403Z,0
2017-12-21T07:57:44.124Z,0
2017-12-21T07:58:53.836Z,0
2017-12-21T08:00:03.822Z,0
2017-12-21T08:01:13.815Z,0
2017-12-21T08:02:23.795Z,0
2017-12-21T08:03:33.782Z,0
2017-12-21T08:04:43.768Z,0
2017-12-21T08:05:53.746Z,5
2017-12-21T08:07:03.461Z,5
2017-12-21T08:08:13.176Z,5
2017-12-21T08:09:22.891Z,5
2017-12-21T08:10:32.604Z,5
2017-12-21T08:11:42.641Z,5
2017-12-21T08:12:52.624Z,5
2017-12-21T08:14:04.605Z,5
2017-12-21T08:15:14.582Z,5
2017-12-21T08:16:24.571Z,5
2017-12-21T08:17:34.019Z,5
2017-12-21T08:18:43.999Z,5
2017-12-21T08:19:53.983Z,5
2017-12-21T08:21:03.968Z,10
2017-12-21T08:22:13.951Z,10
2017-12-21T08:23:23.929Z,10
2017-12-21T08:24:33.905Z,10
2017-12-21T08:25:43.882Z,10
2017-12-21T08:26:53.861Z,10
2017-12-21T08:28:03.308Z,10
2017-12-21T08:29:13.291Z,10
2017-12-21T08:30:23.012Z,10
2017-12-21T08:31:32.994Z,10
2017-12-21T08:32:42.709Z,10
2017-12-21T08:33:52.420Z,15
2017-12-21T08:35:01.869Z,15
2017-12-21T08:36:11.869Z,15
2017-12-21T08:37:21.845Z,15
2017-12-21T08:38:31.834Z,15
2017-12-21T08:39:41.559Z,15
2017-12-21T08:40:51.276Z,15
2017-12-21T08:42:01.255Z,15
2017-12-21T08:43:10.971Z,15
2017-12-21T08:44:21.009Z,20
2017-12-21T08:45:30.993Z,20
2017-12-21T08:46:40.439Z,20
2017-12-21T08:47:50.424Z,20
2017-12-21T08:49:00.404Z,25
2017-12-21T08:50:10.399Z,25
2017-12-21T08:51:20.386Z,25
2017-12-21T08:52:30.394Z,25
2017-12-21T08:53:40.367Z,25
2017-12-21T08:54:50.346Z,30
2017-12-21T08:56:00.328Z,30
2017-12-21T08:57:10.316Z,25
2017-12-21T08:58:20.299Z,25
2017-12-21T08:59:30.280Z,30
2017-12-21T09:00:40.289Z,30
2017-12-21T09:01:50.282Z,35
2017-12-21T09:03:00.263Z,35
2017-12-21T09:04:10.304Z,35
2017-12-21T09:05:20.066Z,40
2017-12-21T09:06:30.531Z,40
2017-12-21T09:07:40.557Z,40
2017-12-21T09:08:50.538Z,40
2017-12-21T09:10:00.545Z,40
2017-12-21T09:11:10.530Z,45
2017-12-21T09:12:22.513Z,45
2017-12-21T09:13:32.498Z,50
2017-12-21T09:14:42.217Z,50
2017-12-21T09:15:51.936Z,50
2017-12-21T09:17:02.033Z,55
2017-12-21T09:18:12.063Z,55
2017-12-21T09:19:22.041Z,55
2017-12-21T09:20:31.752Z,60
2017-12-21T09:21:41.795Z,60
2017-12-21T09:22:51.773Z,60
2017-12-21T09:24:01.489Z,60
2017-12-21T09:25:11.474Z,65
2017-12-21T09:26:21.197Z,65
2017-12-21T09:27:31.181Z,70
2017-12-21T09:28:41.161Z,75
2017-12-21T09:29:50.929Z,80
2017-12-21T09:31:00.909Z,80
2017-12-21T09:32:10.888Z,80
2017-12-21T09:33:20.869Z,80
2017-12-21T09:34:30.858Z,85
2017-12-21T09:35:40.576Z,85
2017-12-21T09:36:50.560Z,85
2017-12-21T09:38:00.540Z,85
2017-12-21T09:39:10.532Z,85
2017-12-21T09:40:20.248Z,85
2017-12-21T09:41:30.230Z,85
2017-12-21T09:42:39.941Z,90
2017-12-21T09:43:49.920Z,90
2017-12-21T09:44:59.901Z,90
2017-12-21T09:46:09.611Z,90
2017-12-21T09:47:19.334Z,90
2017-12-21T09:48:29.312Z,90
2017-12-21T09:49:39.331Z,90
2017-12-21T09:50:49.320Z,90
2017-12-21T09:51:58.768Z,90
2017-12-21T09:53:08.761Z,90
2017-12-21T09:54:18.485Z,85
2017-12-21T09:55:28.469Z,85
2017-12-21T09:56:38.476Z,80
2017-12-21T09:57:48.460Z,80
2017-12-21T09:58:58.448Z,80
2017-12-21T10:00:08.425Z,80
2017-12-21T10:01:18.142Z,80
2017-12-21T10:02:28.126Z,80
2017-12-21T10:03:38.103Z,80
2017-12-21T10:04:48.084Z,85
2017-12-21T10:05:58.062Z,85
2017-12-21T10:07:07.783Z,85
2017-12-21T10:08:17.778Z,85
2017-12-21T10:09:27.766Z,85
2017-12-21T10:10:37.741Z,90
2017-12-21T10:11:47.805Z,90
2017-12-21T10:12:57.789Z,90
2017-12-21T10:14:07.237Z,90
2017-12-21T10:15:17.215Z,95
2017-12-21T10:16:27.203Z,95
2017-12-21T10:17:37.244Z,95
2017-12-21T10:18:47.221Z,95
2017-12-21T10:19:56.944Z,95
2017-12-21T10:21:06.658Z,95
2017-12-21T10:22:15.835Z,100
2017-12-21T10:23:25.812Z,100
2017-12-21T10:24:35.798Z,100
2017-12-21T10:25:45.253Z,100
2017-12-21T10:26:54.971Z,100
2017-12-21T10:28:04.696Z,95
2017-12-21T10:29:14.674Z,95
2017-12-21T10:30:24.660Z,95
2017-12-21T10:31:34.635Z,90
2017-12-21T10:32:44.355Z,90
2017-12-21T10:33:54.330Z,90
2017-12-21T10:35:04.050Z,90
2017-12-21T10:36:13.766Z,90
2017-12-21T10:37:23.746Z,90
2017-12-21T10:38:33.729Z,90
2017-12-21T10:39:43.441Z,90
2017-12-21T10:40:53.421Z,90
2017-12-21T10:42:03.139Z,90
2017-12-21T10:43:12.323Z,90
2017-12-21T10:44:22.304Z,85
2017-12-21T10:45:32.382Z,85
2017-12-21T10:46:42.099Z,85
2017-12-21T10:47:52.083Z,85
2017-12-21T10:49:02.059Z,85
2017-12-21T10:50:11.508Z,85
2017-12-21T10:51:21.537Z,90
2017-12-21T10:52:31.253Z,90
2017-12-21T10:53:40.706Z,90
2017-12-21T10:54:50.418Z,95
2017-12-21T10:56:00.132Z,95
2017-12-21T10:57:10.112Z,95
2017-12-21T10:58:20.196Z,95
2017-12-21T10:59:30.186Z,95
2017-12-21T11:00:39.915Z,95
2017-12-21T11:01:49.667Z,95
2017-12-21T11:02:59.383Z,95
2017-12-21T11:04:09.374Z,95
2017-12-21T11:05:19.092Z,95
2017-12-21T11:06:29.086Z,95
2017-12-21T11:07:38.800Z,95
2017-12-21T11:08:48.518Z,95
2017-12-21T11:09:58.503Z,95
2017-12-21T11:11:08.481Z,95
2017-12-21T11:12:18.461Z,90
2017-12-21T11:13:28.444Z,90
2017-12-21T11:14:38.421Z,90
2017-12-21T11:15:48.135Z,90
2017-12-21T11:16:58.114Z,90
2017-12-21T11:18:07.831Z,90
2017-12-21T11:19:17.819Z,90
2017-12-21T11:20:27.814Z,90
2017-12-21T11:21:37.794Z,90
2017-12-21T11:22:47.782Z,90
2017-12-21T11:23:57.772Z,90
2017-12-21T11:25:07.756Z,95
2017-12-21T11:26:17.751Z,95
2017-12-21T11:27:27.734Z,95
2017-12-21T11:28:37.712Z,95
2017-12-21T11:29:47.691Z,95
2017-12-21T11:30:57.669Z,95
2017-12-21T11:32:07.655Z,95
2017-12-21T11:33:17.376Z,95
2017-12-21T11:34:27.361Z,95
2017-12-21T11:35:37.073Z,95
2017-12-21T11:36:46.784Z,100
2017-12-21T11:37:56.764Z,100
2017-12-21T11:39:06.743Z,100
2017-12-21T11:40:16.192Z,100
2017-12-21T11:41:25.919Z,100
2017-12-21T11:42:35.908Z,100
2017-12-21T11:43:46.190Z,100
2017-12-21T11:44:55.900Z,100
2017-12-21T11:46:05.884Z,105
2017-12-21T11:47:15.331Z,105
2017-12-21T11:48:25.058Z,105
2017-12-21T11:49:35.594Z,100
2017-12-21T11:50:45.316Z,105
2017-12-21T11:51:55.357Z,110
2017-12-21T11:53:04.806Z,110
2017-12-21T11:54:14.519Z,115
2017-12-21T11:55:24.501Z,140
2017-12-21T11:56:34.481Z,180
2017-12-21T11:57:44.214Z,190
2017-12-21T11:58:54.194Z,175
2017-12-21T12:00:04.172Z,190
2017-12-21T12:01:13.920Z,195
2017-12-21T12:02:23.908Z,205
2017-12-21T12:03:33.698Z,225
2017-12-21T12:04:43.682Z,245
2017-12-21T12:05:53.668Z,255
2017-12-21T12:07:03.648Z,255
2017-12-21T12:08:13.631Z,265
2017-12-21T12:09:23.634Z,245
2017-12-21T12:10:33.693Z,250
2017-12-21T12:11:43.674Z,265
2017-12-21T12:12:53.661Z,275
2017-12-21T12:14:03.379Z,280
2017-12-21T12:15:13.358Z,280
2017-12-21T12:16:23.344Z,280
2017-12-21T12:17:33.070Z,280
2017-12-21T12:18:42.840Z,285
2017-12-21T12:19:52.833Z,285
2017-12-21T12:21:02.759Z,285
2017-12-21T12:22:12.652Z,295
2017-12-21T12:23:22.645Z,295
2017-12-21T12:24:32.103Z,295
2017-12-21T12:25:42.088Z,295
2017-12-21T12:26:52.145Z,295
2017-12-21T12:28:01.869Z,295
2017-12-21T12:29:11.854Z,275
2017-12-21T12:30:21.839Z,240
2017-12-21T12:31:31.827Z,215
2017-12-21T12:32:41.824Z,190
2017-12-21T12:33:51.804Z,195
2017-12-21T12:35:01.788Z,200
2017-12-21T12:36:11.243Z,200
2017-12-21T12:37:20.963Z,235
2017-12-21T12:38:30.952Z,275
2017-12-21T12:39:40.676Z,275
2017-12-21T12:40:50.664Z,185
2017-12-21T12:42:00.650Z,140
2017-12-21T12:43:10.636Z,135
2017-12-21T12:44:20.361Z,135
2017-12-21T12:45:30.347Z,125
2017-12-21T12:46:40.338Z,115
2017-12-21T12:47:50.323Z,95
2017-12-21T12:49:00.309Z,85
2017-12-21T12:50:10.034Z,80
2017-12-21T12:51:20.021Z,75
2017-12-21T12:52:29.745Z,75
2017-12-21T12:53:39.743Z,70
2017-12-21T12:54:49.734Z,70
2017-12-21T12:55:59.719Z,65
2017-12-21T12:57:09.711Z,65
2017-12-21T12:58:19.434Z,65
2017-12-21T12:59:29.420Z,60
2017-12-21T13:00:39.415Z,60
2017-12-21T13:01:49.400Z,60
2017-12-21T13:02:59.117Z,60
2017-12-21T13:04:09.102Z,60
2017-12-21T13:05:18.820Z,55
2017-12-21T13:06:28.804Z,55
2017-12-21T13:07:38.587Z,55
2017-12-21T13:08:48.623Z,50
2017-12-21T13:09:58.661Z,50
2017-12-21T13:11:08.643Z,50
2017-12-21T13:12:18.643Z,50
2017-12-21T13:13:28.688Z,45
2017-12-21T13:14:38.465Z,45
2017-12-21T13:15:48.458Z,45
2017-12-21T13:16:58.448Z,45
2017-12-21T13:18:08.440Z,40
2017-12-21T13:19:18.159Z,40
2017-12-21T13:20:27.881Z,40
2017-12-21T13:21:37.597Z,40
2017-12-21T13:22:47.314Z,35
2017-12-21T13:23:57.296Z,35
2017-12-21T13:25:07.280Z,35
2017-12-21T13:26:17.256Z,35
2017-12-21T13:27:26.444Z,35
2017-12-21T13:28:36.432Z,30
2017-12-21T13:29:46.413Z,35
2017-12-21T13:30:56.396Z,35
2017-12-21T13:32:06.112Z,35
2017-12-21T13:33:15.825Z,35
2017-12-21T13:34:25.275Z,35
2017-12-21T13:35:35.262Z,35
2017-12-21T13:36:44.978Z,35
2017-12-21T13:37:54.960Z,35
2017-12-21T13:39:04.949Z,35
2017-12-21T13:40:16.936Z,35
2017-12-21T13:41:26.921Z,35
2017-12-21T13:42:36.902Z,35
2017-12-21T13:43:46.620Z,30
2017-12-21T13:44:56.606Z,30
2017-12-21T13:46:06.639Z,30
2017-12-21T13:47:16.626Z,30
2017-12-21T13:48:26.617Z,30
2017-12-21T13:49:36.595Z,30
2017-12-21T13:50:46.590Z,30
2017-12-21T13:51:56.568Z,25
2017-12-21T13:53:06.552Z,25
2017-12-21T13:54:16.530Z,25
2017-12-21T13:55:26.242Z,20
2017-12-21T13:56:36.224Z,20
2017-12-21T13:57:45.678Z,20
2017-12-21T13:58:55.403Z,20
2017-12-21T14:00:05.394Z,20
2017-12-21T14:01:15.376Z,15
2017-12-21T14:02:25.362Z,15
2017-12-21T14:03:37.364Z,15
2017-12-21T14:04:47.344Z,15
2017-12-21T14:05:57.328Z,10
2017-12-21T14:07:07.305Z,10
2017-12-21T14:08:17.022Z,10
2017-12-21T14:09:26.735Z,10
2017-12-21T14:10:36.800Z,10
2017-12-21T14:11:46.786Z,5
2017-12-21T14:12:56.508Z,5
2017-12-21T14:14:06.241Z,5
2017-12-21T14:15:16.229Z,5
2017-12-21T14:16:25.945Z,5
2017-12-21T14:17:35.980Z,5
2017-12-21T14:18:45.961Z,5
2017-12-21T14:19:55.681Z,5
2017-12-21T14:21:05.398Z,5
2017-12-21T14:22:15.381Z,5
2017-12-21T14:23:24.826Z,5
2017-12-21T14:24:34.826Z,5
2017-12-21T14:25:44.811Z,5
2017-12-21T14:26:54.267Z,0
2017-12-21T14:28:04.312Z,0
2017-12-21T14:29:14.293Z,0
2017-12-21T14:30:24.006Z,0
2017-12-21T14:31:33.721Z,0
2017-12-21T14:32:44.059Z,0
2017-12-21T14:33:54.037Z,0
2017-12-21T14:35:04.019Z,0
2017-12-21T14:36:13.733Z,0
2017-12-21T14:37:23.457Z,0
2017-12-21T14:38:33.438Z,0
2017-12-21T14:39:43.417Z,0
2017-12-21T14:40:53.398Z,0
2017-12-21T14:42:03.382Z,0
2017-12-21T14:43:13.365Z,0
2017-12-21T14:44:23.078Z,0
2017-12-21T14:45:32.580Z,0
2017-12-21T14:46:42.563Z,0
2017-12-21T14:47:52.550Z,0
2017-12-21T14:49:02.531Z,0
2017-12-21T14:50:11.977Z,0
2017-12-21T14:51:21.958Z,0
2017-12-21T14:52:31.931Z,0
2017-12-21T14:53:41.645Z,0
2017-12-21T14:54:51.098Z,0
2017-12-21T14:56:01.080Z,0
2017-12-21T14:57:11.059Z,0
2017-12-21T14:58:21.038Z,0
2017-12-21T14:59:31.024Z,0
2017-12-21T15:00:41.005Z,0
2017-12-21T15:01:50.719Z,0
2017-12-21T15:03:00.431Z,0
2017-12-21T15:04:10.411Z,0
2017-12-21T15:05:20.393Z,0
2017-12-21T15:06:30.368Z,0
2017-12-21T15:07:40.350Z,0
2017-12-21T15:08:50.328Z,0
2017-12-21T15:10:00.038Z,0
2017-12-21T15:11:10.056Z,0
2017-12-21T15:12:20.038Z,0
2017-12-21T15:13:30.031Z,0
2017-12-21T15:14:40.031Z,0
2017-12-21T15:15:50.015Z,0
2017-12-21T15:16:59.730Z,0
2017-12-21T15:18:09.443Z,0
2017-12-21T15:19:19.151Z,0
2017-12-21T15:20:28.871Z,0
2017-12-21T15:21:38.852Z,0
2017-12-21T15:22:48.564Z,0
2017-12-21T15:23:58.276Z,0
2017-12-21T15:25:08.256Z,0
2017-12-21T15:26:17.707Z,0
2017-12-21T15:27:27.681Z,0
2017-12-21T15:28:37.664Z,0
2017-12-21T15:29:47.647Z,0
2017-12-21T15:30:57.641Z,0
2017-12-21T15:32:07.618Z,0
2017-12-21T15:33:17.603Z,0
2017-12-21T15:34:27.589Z,0
2017-12-21T15:35:37.299Z,0
2017-12-21T15:36:47.359Z,0
2017-12-21T15:37:57.381Z,0
2017-12-21T15:39:07.359Z,0
2017-12-21T15:40:17.343Z,0
2017-12-21T15:41:27.324Z,0
2017-12-21T15:42:37.304Z,0
2017-12-21T15:43:47.077Z,0
2017-12-21T15:44:57.056Z,0
2017-12-21T15:46:07.035Z,0
2017-12-21T15:47:16.753Z,0
2017-12-21T15:48:28.466Z,0
2017-12-21T15:49:38.180Z,0
2017-12-21T15:50:47.909Z,0
2017-12-21T15:51:57.887Z,0
2017-12-21T15:53:07.864Z,0
2017-12-21T15:54:17.585Z,0
2017-12-21T15:55:27.568Z,0
2017-12-21T15:56:37.553Z,0
2017-12-21T15:57:47.268Z,0
2017-12-21T15:58:56.710Z,0
2017-12-21T16:00:06.158Z,0
2017-12-21T16:01:16.137Z,0
2017-12-21T16:02:26.123Z,0
2017-12-21T16:03:36.105Z,0
2017-12-21T16:04:46.086Z,0
2017-12-21T16:05:56.060Z,0
2017-12-21T16:07:06.046Z,0
2017-12-21T16:08:16.027Z,0
2017-12-21T16:09:26.010Z,0
2017-12-21T16:10:35.991Z,0
2017-12-21T16:11:46.001Z,0
2017-12-21T16:12:55.727Z,0
2017-12-21T16:14:05.723Z,0
2017-12-21T16:15:15.719Z,0
2017-12-21T16:16:25.440Z,0
2017-12-21T16:17:35.428Z,0
2017-12-21T16:18:45.410Z,0
2017-12-21T16:19:55.395Z,0
2017-12-21T16:21:05.428Z,0
2017-12-21T16:22:15.421Z,0
2017-12-21T16:23:25.402Z,0
2017-12-21T16:24:35.111Z,0
2017-12-21T16:25:45.093Z,0
2017-12-21T16:26:55.079Z,0
2017-12-21T16:28:05.121Z,0
2017-12-21T16:29:15.105Z,0
2017-12-21T16:30:24.560Z,0
2017-12-21T16:31:34.536Z,0
2017-12-21T16:32:44.517Z,0
2017-12-21T16:33:54.568Z,0
2017-12-21T16:35:04.555Z,0
2017-12-21T16:36:14.537Z,0
2017-12-21T16:37:24.516Z,0
2017-12-21T16:38:34.496Z,0
2017-12-21T16:39:44.489Z,0
2017-12-21T16:40:54.474Z,0
2017-12-21T16:42:04.451Z,0
2017-12-21T16:43:14.432Z,0
2017-12-21T16:44:24.418Z,0
2017-12-21T16:45:34.398Z,0
2017-12-21T16:46:44.116Z,0
2017-12-21T16:47:54.097Z,0
2017-12-21T16:49:04.094Z,0
2017-12-21T16:50:14.075Z,0
2017-12-21T16:51:23.791Z,0
2017-12-21T16:52:33.778Z,0
2017-12-21T16:53:43.769Z,0
2017-12-21T16:54:53.753Z,0
2017-12-21T16:56:03.471Z,0
2017-12-21T16:57:13.455Z,0
2017-12-21T16:58:23.543Z,0
2017-12-21T16:59:33.526Z,0
2017-12-21T17:00:43.507Z,0